createdAt,value
2022-10-12T00:01:50.488Z,8.87
2022-10-12T00:06:51.986Z,8.85
2022-10-12T00:11:53.342Z,8.83
2022-10-12T00:16:54.691Z,8.83
2022-10-12T00:21:56.035Z,8.81
2022-10-12T00:26:57.437Z,8.76
2022-10-12T00:31:58.886Z,8.72
2022-10-12T00:37:00.291Z,8.61
2022-10-12T00:42:01.677Z,8.53
2022-10-12T00:47:14.455Z,8.47
2022-10-12T00:52:19.959Z,8.46
2022-10-12T00:57:22.713Z,8.43
2022-10-12T01:02:27.757Z,8.42
2022-10-12T01:07:29.147Z,8.39
2022-10-12T01:12:31.571Z,8.44
2022-10-12T01:17:43.460Z,8.47
2022-10-12T01:23:04.441Z,8.50
2022-10-12T01:28:19.996Z,8.50
2022-10-12T01:33:31.918Z,8.42
2022-10-12T01:38:41.591Z,8.42
2022-10-12T01:43:44.607Z,8.43
2022-10-12T01:48:49.037Z,8.40
2022-10-12T01:54:08.208Z,8.39
2022-10-12T01:59:29.775Z,8.33
2022-10-12T02:04:39.742Z,8.28
2022-10-12T02:09:41.374Z,8.24
2022-10-12T02:14:47.271Z,8.11
2022-10-12T02:19:58.071Z,8.12
2022-10-12T02:25:01.503Z,8.08
2022-10-12T02:30:03.508Z,8.02
2022-10-12T02:35:10.120Z,8.04
2022-10-12T02:40:34.904Z,8.02
2022-10-12T02:45:38.379Z,7.91
2022-10-12T02:50:40.169Z,7.85
2022-10-12T02:56:10.948Z,7.78
2022-10-12T03:01:14.178Z,7.77
2022-10-12T03:06:15.734Z,7.74
2022-10-12T03:11:17.087Z,7.74
2022-10-12T03:16:18.503Z,7.69
2022-10-12T03:21:19.925Z,7.65
2022-10-12T03:26:21.290Z,7.71
2022-10-12T03:31:22.680Z,7.68
2022-10-12T03:36:24.049Z,7.64
2022-10-12T03:41:25.480Z,7.57
2022-10-12T03:46:26.877Z,7.55
2022-10-12T03:51:28.283Z,7.57
2022-10-12T03:56:29.630Z,7.59
2022-10-12T04:01:31.081Z,7.58
2022-10-12T04:06:32.545Z,7.52
2022-10-12T04:11:33.941Z,7.46
2022-10-12T04:16:35.290Z,7.45
2022-10-12T04:21:36.643Z,7.35
2022-10-12T04:26:38.046Z,7.32
2022-10-12T04:31:40.326Z,7.30
2022-10-12T04:36:41.752Z,7.28
2022-10-12T04:41:43.143Z,7.27
2022-10-12T04:46:44.643Z,7.33
2022-10-12T04:51:46.006Z,7.34
2022-10-12T04:56:48.326Z,7.29
2022-10-12T05:01:50.288Z,7.32
2022-10-12T05:06:51.727Z,7.39
2022-10-12T05:11:53.118Z,7.38
2022-10-12T05:16:54.772Z,7.39
2022-10-12T05:21:56.223Z,7.43
2022-10-12T05:26:57.727Z,7.41
2022-10-12T05:31:59.145Z,7.40
2022-10-12T05:37:01.212Z,7.37
2022-10-12T05:42:03.816Z,7.42
2022-10-12T05:47:05.206Z,7.48
2022-10-12T05:52:06.695Z,7.51
2022-10-12T05:57:08.093Z,7.48
2022-10-12T06:02:18.460Z,7.36
2022-10-12T06:07:19.901Z,7.37
2022-10-12T06:12:21.282Z,7.38
2022-10-12T06:17:22.788Z,7.42
2022-10-12T06:22:24.156Z,7.45
2022-10-12T06:27:25.561Z,7.51
2022-10-12T06:32:26.939Z,7.53
2022-10-12T06:37:49.016Z,7.51
2022-10-12T06:42:54.864Z,7.60
2022-10-12T06:47:59.030Z,7.71
2022-10-12T06:53:00.400Z,7.76
2022-10-12T06:58:01.745Z,7.89
2022-10-12T07:03:03.758Z,8.01
2022-10-12T07:08:05.217Z,8.08
2022-10-12T07:13:06.590Z,8.19
2022-10-12T07:18:07.940Z,8.40
2022-10-12T07:23:09.382Z,8.46
2022-10-12T07:28:10.829Z,8.61
2022-10-12T07:33:12.575Z,8.86
2022-10-12T07:38:14.002Z,9.03
2022-10-12T07:43:16.618Z,9.20
2022-10-12T07:48:20.038Z,9.42
2022-10-12T07:53:21.899Z,9.57
2022-10-12T07:58:23.416Z,9.76
2022-10-12T08:03:24.912Z,10.00
2022-10-12T08:08:26.474Z,10.17
2022-10-12T08:13:28.018Z,10.38
2022-10-12T08:18:30.679Z,10.56
2022-10-12T08:23:32.388Z,10.75
2022-10-12T08:28:34.494Z,10.96
2022-10-12T08:33:36.028Z,11.17
2022-10-12T08:38:43.092Z,11.40
2022-10-12T08:44:06.270Z,11.54
2022-10-12T08:49:19.638Z,11.84
2022-10-12T08:54:25.921Z,12.07
2022-10-12T08:59:29.544Z,12.22
2022-10-12T09:04:49.196Z,12.49
2022-10-12T09:10:15.016Z,12.68
2022-10-12T09:15:22.466Z,12.88
2022-10-12T09:20:23.776Z,13.04
2022-10-12T09:25:28.092Z,13.22
2022-10-12T09:30:30.119Z,13.44
2022-10-12T09:35:32.786Z,13.59
2022-10-12T09:40:34.174Z,13.79
2022-10-12T09:45:36.002Z,13.93
2022-10-12T09:50:48.047Z,14.13
2022-10-12T09:55:55.912Z,14.35
2022-10-12T10:01:21.603Z,14.57
2022-10-12T10:06:25.122Z,14.75
2022-10-12T10:11:30.840Z,14.83
2022-10-12T10:16:32.312Z,15.14
2022-10-12T10:21:35.809Z,15.40
2022-10-12T10:26:57.653Z,15.57
2022-10-12T10:32:16.010Z,15.64
2022-10-12T10:37:22.947Z,15.94
2022-10-12T10:42:30.133Z,16.19
2022-10-12T10:47:32.327Z,16.31
2022-10-12T10:52:36.899Z,16.54
2022-10-12T10:57:42.875Z,16.66
2022-10-12T11:02:59.490Z,16.90
2022-10-12T11:08:20.673Z,17.17
2022-10-12T11:13:36.379Z,17.39
2022-10-12T11:19:18.178Z,17.51
2022-10-12T11:24:26.617Z,17.63
2022-10-12T11:29:28.347Z,17.99
2022-10-12T11:34:46.603Z,18.23
2022-10-12T11:39:51.828Z,18.50
2022-10-12T11:44:54.673Z,18.67
2022-10-12T11:50:00.357Z,19.00
2022-10-12T11:55:38.966Z,19.24
2022-10-12T12:00:54.958Z,19.58
2022-10-12T12:05:56.500Z,19.83
2022-10-12T12:11:17.838Z,19.97
2022-10-12T12:16:19.179Z,20.19
2022-10-12T12:21:20.588Z,20.38
2022-10-12T12:26:28.228Z,20.68
2022-10-12T12:31:30.459Z,21.02
2022-10-12T12:36:34.206Z,21.30
2022-10-12T12:41:56.483Z,21.12
2022-10-12T12:47:01.971Z,21.41
2022-10-12T12:52:13.262Z,21.24
2022-10-12T12:57:52.932Z,21.27
2022-10-12T13:03:22.220Z,21.42
2022-10-12T13:08:35.121Z,21.62
2022-10-12T13:13:58.339Z,21.81
2022-10-12T13:19:05.904Z,21.91
2022-10-12T13:24:19.276Z,22.11
2022-10-12T13:29:51.944Z,22.29
2022-10-12T13:34:56.826Z,22.23
2022-10-12T13:39:58.463Z,22.00
2022-10-12T13:45:02.008Z,21.91
2022-10-12T13:50:15.842Z,21.92
2022-10-12T13:55:17.316Z,21.82
2022-10-12T14:00:21.508Z,21.87
2022-10-12T14:05:25.624Z,21.75
2022-10-12T14:10:32.717Z,21.45
2022-10-12T14:15:37.010Z,21.30
2022-10-12T14:20:39.261Z,21.00
2022-10-12T14:25:55.544Z,20.83
2022-10-12T14:30:57.166Z,21.00
2022-10-12T14:36:20.439Z,20.77
2022-10-12T14:41:37.832Z,20.70
2022-10-12T14:46:41.948Z,20.87
2022-10-12T14:51:43.536Z,20.89
2022-10-12T14:56:45.173Z,20.88
2022-10-12T15:01:51.236Z,20.79
2022-10-12T15:06:53.007Z,20.75
2022-10-12T15:11:54.346Z,20.77
2022-10-12T15:16:57.804Z,20.59
2022-10-12T15:21:59.343Z,20.45
2022-10-12T15:27:00.770Z,20.33
2022-10-12T15:32:02.156Z,20.30
2022-10-12T15:37:08.664Z,20.08
2022-10-12T15:42:12.423Z,19.99
2022-10-12T15:47:14.150Z,19.90
2022-10-12T15:52:17.334Z,19.83
2022-10-12T15:57:18.721Z,19.65
2022-10-12T16:02:27.462Z,19.64
2022-10-12T16:07:28.794Z,19.60
2022-10-12T16:12:30.187Z,19.51
2022-10-12T16:17:31.609Z,19.42
2022-10-12T16:22:33.248Z,19.31
2022-10-12T16:27:35.022Z,19.08
2022-10-12T16:32:36.650Z,18.95
2022-10-12T16:37:38.015Z,18.86
2022-10-12T16:42:39.774Z,18.74
2022-10-12T16:47:42.708Z,18.59
2022-10-12T16:52:44.690Z,18.41
2022-10-12T16:57:47.064Z,18.23
2022-10-12T17:02:48.545Z,18.06
2022-10-12T17:07:49.926Z,17.91
2022-10-12T17:12:51.288Z,17.76
2022-10-12T17:17:54.004Z,17.60
2022-10-12T17:22:55.382Z,17.45
2022-10-12T17:27:56.875Z,17.32
2022-10-12T17:32:58.227Z,17.22
2022-10-12T17:37:59.576Z,17.11
2022-10-12T17:43:00.921Z,17.01
2022-10-12T17:48:02.448Z,16.92
2022-10-12T17:53:03.807Z,16.83
2022-10-12T17:58:05.369Z,16.78
2022-10-12T18:03:06.809Z,16.68
2022-10-12T18:08:08.207Z,16.59
2022-10-12T18:13:09.717Z,16.52
2022-10-12T18:18:15.151Z,16.38
2022-10-12T18:23:17.155Z,16.25
2022-10-12T18:28:18.623Z,16.16
2022-10-12T18:33:20.096Z,16.04
2022-10-12T18:38:21.435Z,15.86
2022-10-12T18:43:22.807Z,15.75
2022-10-12T18:48:24.303Z,15.72
2022-10-12T18:53:28.032Z,15.64
2022-10-12T18:58:29.853Z,15.44
2022-10-12T19:03:31.229Z,15.33
2022-10-12T19:08:32.684Z,15.29
2022-10-12T19:13:37.450Z,15.21
2022-10-12T19:18:39.943Z,15.14
2022-10-12T19:23:44.295Z,15.05
2022-10-12T19:28:48.793Z,14.90
2022-10-12T19:33:50.532Z,14.75
2022-10-12T19:38:58.761Z,14.62
2022-10-12T19:44:01.352Z,14.52
2022-10-12T19:49:03.157Z,14.29
2022-10-12T19:54:05.177Z,14.17
2022-10-12T19:59:07.168Z,14.19
2022-10-12T20:04:11.868Z,14.09
2022-10-12T20:09:14.049Z,13.92
2022-10-12T20:14:15.787Z,13.92
2022-10-12T20:19:17.417Z,13.88
2022-10-12T20:24:20.021Z,13.82
2022-10-12T20:29:21.655Z,13.75
2022-10-12T20:34:23.334Z,13.67
2022-10-12T20:39:25.058Z,13.63
2022-10-12T20:44:26.598Z,13.56
2022-10-12T20:49:31.066Z,13.48
2022-10-12T20:54:33.227Z,13.45
2022-10-12T20:59:36.941Z,13.42
2022-10-12T21:04:38.632Z,13.25
2022-10-12T21:09:40.396Z,13.22
2022-10-12T21:14:41.995Z,13.06
2022-10-12T21:19:43.479Z,13.03
2022-10-12T21:24:45.039Z,12.96
2022-10-12T21:29:46.544Z,12.89
2022-10-12T21:34:48.388Z,12.80
2022-10-12T21:39:54.233Z,12.72
2022-10-12T21:44:56.178Z,12.66
2022-10-12T21:49:57.672Z,12.56
2022-10-12T21:54:59.185Z,12.46
2022-10-12T22:00:00.669Z,12.39
2022-10-12T22:05:02.224Z,12.28
2022-10-12T22:10:04.386Z,12.17
2022-10-12T22:15:08.000Z,12.14
2022-10-12T22:20:10.098Z,12.07
2022-10-12T22:25:11.613Z,12.00
2022-10-12T22:30:13.140Z,11.91
2022-10-12T22:35:14.847Z,11.83
2022-10-12T22:40:16.495Z,11.74
2022-10-12T22:45:17.920Z,11.65
2022-10-12T22:50:19.783Z,11.55
2022-10-12T22:55:22.591Z,11.47
2022-10-12T23:00:24.068Z,11.44
2022-10-12T23:05:26.100Z,11.38
2022-10-12T23:10:27.707Z,11.29
2022-10-12T23:15:29.298Z,11.22
2022-10-12T23:20:30.853Z,11.12
2022-10-12T23:25:32.360Z,11.14
2022-10-12T23:30:34.163Z,11.11
2022-10-12T23:46:16.209Z,10.95
2022-10-12T23:56:46.475Z,10.86
